createdAt,value
2022-10-16T00:01:40.063Z,52.96
2022-10-16T00:04:09.463Z,52.79
2022-10-16T00:06:36.243Z,53.13
2022-10-16T00:09:06.427Z,52.98
2022-10-16T00:11:37.804Z,52.90
2022-10-16T00:14:07.954Z,52.78
2022-10-16T00:16:35.215Z,53.06
2022-10-16T00:19:01.998Z,53.17
2022-10-16T00:21:30.231Z,52.92
2022-10-16T00:24:00.244Z,52.71
2022-10-16T00:26:27.909Z,53.07
2022-10-16T00:28:54.670Z,52.78
2022-10-16T00:31:23.233Z,52.73
2022-10-16T00:33:50.389Z,52.68
2022-10-16T00:36:22.523Z,52.77
2022-10-16T00:38:54.698Z,52.98
2022-10-16T00:41:22.554Z,52.58
2022-10-16T00:43:49.135Z,52.67
2022-10-16T00:46:23.142Z,52.91
2022-10-16T00:49:01.793Z,52.58
2022-10-16T00:51:48.204Z,53.14
2022-10-16T00:54:17.550Z,53.22
2022-10-16T00:56:48.444Z,53.01
2022-10-16T00:59:28.456Z,53.27
2022-10-16T01:01:55.803Z,53.43
2022-10-16T01:04:23.211Z,52.86
2022-10-16T01:07:08.547Z,52.97
2022-10-16T01:09:48.271Z,52.84
2022-10-16T01:12:38.698Z,52.79
2022-10-16T01:15:17.883Z,52.93
2022-10-16T01:17:57.656Z,52.82
2022-10-16T01:20:31.526Z,52.99
2022-10-16T01:23:11.861Z,53.30
2022-10-16T01:26:00.431Z,53.35
2022-10-16T01:28:34.666Z,53.30
2022-10-16T01:31:02.774Z,53.55
2022-10-16T01:36:32.384Z,53.90
2022-10-16T01:39:02.249Z,54.30
2022-10-16T01:41:35.280Z,54.09
2022-10-16T01:44:11.802Z,54.36
2022-10-16T01:46:41.109Z,54.36
2022-10-16T01:49:12.586Z,54.73
2022-10-16T01:51:40.042Z,54.58
2022-10-16T01:54:09.368Z,54.38
2022-10-16T01:56:36.023Z,55.03
2022-10-16T01:59:07.443Z,54.73
2022-10-16T02:01:35.757Z,54.72
2022-10-16T02:04:10.696Z,55.16
2022-10-16T02:06:37.793Z,54.88
2022-10-16T02:09:04.474Z,55.00
2022-10-16T02:11:31.192Z,55.25
2022-10-16T02:14:05.291Z,55.15
2022-10-16T02:16:43.512Z,55.33
2022-10-16T02:19:14.188Z,55.41
2022-10-16T02:21:47.055Z,55.43
2022-10-16T02:24:31.274Z,55.74
2022-10-16T02:27:04.013Z,55.92
2022-10-16T02:29:32.054Z,56.01
2022-10-16T02:32:04.060Z,56.13
2022-10-16T02:34:34.919Z,56.08
2022-10-16T02:37:09.840Z,56.17
2022-10-16T02:39:36.554Z,56.13
2022-10-16T02:42:05.994Z,56.25
2022-10-16T02:44:32.776Z,56.79
2022-10-16T02:47:02.238Z,56.57
2022-10-16T02:49:28.985Z,56.53
2022-10-16T02:51:55.866Z,56.35
2022-10-16T02:54:22.579Z,56.50
2022-10-16T02:56:49.825Z,56.96
2022-10-16T02:59:16.786Z,56.88
2022-10-16T03:01:43.516Z,56.80
2022-10-16T03:04:10.235Z,57.00
2022-10-16T03:06:37.273Z,57.24
2022-10-16T03:09:03.946Z,57.11
2022-10-16T03:11:32.703Z,57.23
2022-10-16T03:13:59.377Z,57.17
2022-10-16T03:16:26.052Z,57.47
2022-10-16T03:18:52.735Z,57.27
2022-10-16T03:21:19.448Z,57.41
2022-10-16T03:23:46.112Z,57.72
2022-10-16T03:26:12.807Z,57.80
2022-10-16T03:28:39.487Z,57.76
2022-10-16T03:31:11.452Z,57.65
2022-10-16T03:33:38.166Z,57.78
2022-10-16T03:36:04.937Z,57.77
2022-10-16T03:38:31.610Z,57.86
2022-10-16T03:40:58.351Z,58.15
2022-10-16T03:43:25.070Z,58.11
2022-10-16T03:45:54.934Z,58.38
2022-10-16T03:48:21.711Z,58.22
2022-10-16T03:50:49.419Z,58.69
2022-10-16T03:53:16.424Z,58.45
2022-10-16T03:55:43.796Z,58.57
2022-10-16T03:58:10.614Z,59.03
2022-10-16T04:00:37.356Z,59.02
2022-10-16T04:03:06.536Z,59.03
2022-10-16T04:05:33.198Z,59.10
2022-10-16T04:08:02.944Z,59.20
2022-10-16T04:10:34.065Z,59.07
2022-10-16T04:13:00.778Z,59.09
2022-10-16T04:15:27.499Z,59.07
2022-10-16T04:17:56.514Z,58.74
2022-10-16T04:20:23.292Z,59.01
2022-10-16T04:22:49.939Z,59.29
2022-10-16T04:25:16.700Z,59.22
2022-10-16T04:27:46.292Z,59.43
2022-10-16T04:30:15.824Z,59.34
2022-10-16T04:32:42.603Z,59.74
2022-10-16T04:35:12.129Z,59.28
2022-10-16T04:37:39.023Z,59.34
2022-10-16T04:40:06.219Z,59.13
2022-10-16T04:42:35.261Z,59.15
2022-10-16T04:45:02.332Z,58.99
2022-10-16T04:47:32.174Z,59.06
2022-10-16T04:50:03.534Z,59.11
2022-10-16T04:52:30.496Z,58.97
2022-10-16T04:55:02.630Z,59.15
2022-10-16T04:57:30.707Z,59.25
2022-10-16T04:59:58.361Z,59.12
2022-10-16T05:02:25.256Z,59.40
2022-10-16T05:04:52.641Z,59.40
2022-10-16T05:07:22.016Z,59.51
2022-10-16T05:09:48.808Z,59.19
2022-10-16T05:12:18.339Z,59.32
2022-10-16T05:14:45.114Z,59.61
2022-10-16T05:17:12.517Z,59.42
2022-10-16T05:19:39.795Z,59.40
2022-10-16T05:22:10.083Z,59.50
2022-10-16T05:24:37.187Z,59.19
2022-10-16T05:27:04.332Z,59.20
2022-10-16T05:29:35.248Z,59.28
2022-10-16T05:32:04.667Z,59.18
2022-10-16T05:34:31.665Z,59.26
2022-10-16T05:37:02.715Z,59.31
2022-10-16T05:39:35.913Z,59.26
2022-10-16T05:42:12.141Z,59.03
2022-10-16T05:44:41.490Z,59.40
2022-10-16T05:47:11.812Z,59.33
2022-10-16T05:49:41.315Z,59.27
2022-10-16T05:52:08.661Z,59.23
2022-10-16T05:54:35.446Z,59.08
2022-10-16T05:57:03.205Z,58.59
2022-10-16T05:59:29.880Z,58.53
2022-10-16T06:01:59.020Z,58.61
2022-10-16T06:04:25.707Z,58.54
2022-10-16T06:06:54.889Z,58.29
2022-10-16T06:09:23.865Z,58.32
2022-10-16T06:11:52.730Z,58.19
2022-10-16T06:14:21.740Z,58.24
2022-10-16T06:16:48.453Z,58.09
2022-10-16T06:19:16.351Z,58.20
2022-10-16T06:21:45.747Z,57.40
2022-10-16T06:24:15.021Z,57.70
2022-10-16T06:26:44.087Z,57.69
2022-10-16T06:29:12.917Z,57.56
2022-10-16T06:31:41.644Z,57.24
2022-10-16T06:34:12.388Z,57.02
2022-10-16T06:36:42.268Z,56.64
2022-10-16T06:39:13.728Z,56.84
2022-10-16T06:41:42.849Z,56.72
2022-10-16T06:44:15.916Z,56.45
2022-10-16T06:46:42.574Z,56.21
2022-10-16T06:49:11.626Z,55.53
2022-10-16T06:51:43.355Z,55.52
2022-10-16T06:54:11.324Z,55.72
2022-10-16T06:56:38.740Z,55.92
2022-10-16T06:59:07.795Z,55.82
2022-10-16T07:01:34.552Z,55.50
2022-10-16T07:04:02.207Z,54.95
2022-10-16T07:06:34.132Z,55.17
2022-10-16T07:09:05.766Z,55.13
2022-10-16T07:11:40.734Z,55.05
2022-10-16T07:14:21.367Z,54.60
2022-10-16T07:16:48.948Z,54.46
2022-10-16T07:19:17.970Z,54.57
2022-10-16T07:21:47.746Z,54.47
2022-10-16T07:24:17.477Z,54.18
2022-10-16T07:26:47.977Z,53.92
2022-10-16T07:29:20.993Z,53.68
2022-10-16T07:31:48.274Z,52.51
2022-10-16T07:34:17.578Z,53.33
2022-10-16T07:36:50.674Z,53.17
2022-10-16T07:39:27.245Z,53.50
2022-10-16T07:41:54.235Z,53.43
2022-10-16T07:44:23.994Z,52.96
2022-10-16T07:46:50.727Z,52.88
2022-10-16T07:49:17.544Z,53.13
2022-10-16T07:51:44.205Z,52.96
2022-10-16T07:54:11.462Z,53.09
2022-10-16T07:56:43.693Z,53.00
2022-10-16T07:59:12.532Z,52.43
2022-10-16T08:01:44.443Z,52.16
2022-10-16T08:04:18.588Z,51.72
2022-10-16T08:06:45.421Z,52.05
2022-10-16T08:09:24.222Z,51.22
2022-10-16T08:12:11.469Z,51.98
2022-10-16T08:14:48.498Z,51.54
2022-10-16T08:17:18.501Z,51.75
2022-10-16T08:19:51.257Z,51.21
2022-10-16T08:22:30.304Z,51.37
2022-10-16T08:24:59.455Z,51.53
2022-10-16T08:27:26.431Z,51.14
2022-10-16T08:29:53.259Z,50.77
2022-10-16T08:32:25.298Z,50.51
2022-10-16T08:34:55.334Z,49.81
2022-10-16T08:37:24.316Z,50.06
2022-10-16T08:39:51.658Z,50.46
2022-10-16T08:42:46.005Z,49.90
2022-10-16T08:45:31.012Z,50.04
2022-10-16T08:48:09.840Z,49.73
2022-10-16T08:50:39.487Z,49.92
2022-10-16T08:53:16.244Z,49.37
2022-10-16T08:55:45.440Z,49.65
2022-10-16T08:58:24.611Z,49.35
2022-10-16T09:01:04.915Z,49.26
2022-10-16T09:03:53.929Z,48.59
2022-10-16T09:06:37.295Z,47.90
2022-10-16T09:09:27.584Z,49.04
2022-10-16T09:11:59.001Z,48.48
2022-10-16T09:14:59.503Z,47.90
2022-10-16T09:17:51.071Z,48.14
2022-10-16T09:20:29.901Z,48.04
2022-10-16T09:23:34.300Z,47.13
2022-10-16T09:26:04.770Z,47.42
2022-10-16T09:28:31.554Z,46.76
2022-10-16T09:30:58.408Z,46.72
2022-10-16T09:33:30.499Z,46.78
2022-10-16T09:35:59.813Z,46.34
2022-10-16T09:38:32.161Z,45.96
2022-10-16T09:41:03.602Z,46.17
2022-10-16T09:43:42.331Z,46.10
2022-10-16T09:46:33.824Z,45.76
2022-10-16T09:49:01.526Z,46.25
2022-10-16T09:51:34.073Z,45.06
2022-10-16T09:54:14.538Z,45.41
2022-10-16T09:56:41.501Z,45.27
2022-10-16T09:59:21.339Z,44.30
2022-10-16T10:01:52.901Z,44.55
2022-10-16T10:04:24.669Z,43.94
2022-10-16T10:07:00.585Z,43.25
2022-10-16T10:09:30.531Z,43.46
2022-10-16T10:12:06.112Z,43.08
2022-10-16T10:14:42.831Z,42.53
2022-10-16T10:17:20.667Z,42.31
2022-10-16T10:19:56.675Z,41.13
2022-10-16T10:22:29.245Z,42.09
2022-10-16T10:25:01.105Z,41.56
2022-10-16T10:27:48.273Z,41.12
2022-10-16T10:30:26.288Z,41.01
2022-10-16T10:33:13.064Z,39.28
2022-10-16T10:36:15.793Z,40.18
2022-10-16T10:38:54.854Z,40.44
2022-10-16T10:41:27.835Z,39.03
2022-10-16T10:44:06.473Z,38.60
2022-10-16T10:46:48.768Z,39.61
2022-10-16T10:49:21.269Z,39.40
2022-10-16T10:52:06.433Z,38.96
2022-10-16T10:54:52.084Z,38.12
2022-10-16T10:57:45.746Z,38.11
2022-10-16T11:00:24.557Z,37.98
2022-10-16T11:03:22.274Z,38.50
2022-10-16T11:05:59.722Z,38.90
2022-10-16T11:08:50.127Z,37.73
2022-10-16T11:11:24.651Z,37.92
2022-10-16T11:13:57.924Z,38.08
2022-10-16T11:16:30.217Z,36.53
2022-10-16T11:19:22.431Z,36.49
2022-10-16T11:22:00.570Z,37.00
2022-10-16T11:24:45.021Z,37.08
2022-10-16T11:27:18.141Z,36.48
2022-10-16T11:29:52.455Z,35.78
2022-10-16T11:32:32.528Z,35.45
2022-10-16T11:35:12.572Z,35.43
2022-10-16T11:37:51.119Z,34.62
2022-10-16T11:40:47.224Z,34.29
2022-10-16T11:43:19.355Z,34.56
2022-10-16T11:45:56.140Z,34.55
2022-10-16T11:48:27.057Z,33.99
2022-10-16T11:51:12.116Z,33.09
2022-10-16T11:54:03.349Z,32.86
2022-10-16T11:56:33.837Z,33.65
2022-10-16T11:59:00.525Z,32.96
2022-10-16T12:01:34.727Z,32.37
2022-10-16T12:04:16.748Z,30.66
2022-10-16T12:07:13.643Z,31.95
2022-10-16T12:09:41.233Z,33.07
2022-10-16T12:12:29.152Z,31.37
2022-10-16T12:18:23.662Z,31.88
2022-10-16T12:21:05.476Z,31.08
2022-10-16T12:23:42.103Z,30.30
2022-10-16T12:26:08.814Z,29.08
2022-10-16T12:28:41.591Z,28.48
2022-10-16T12:31:13.267Z,28.36
2022-10-16T12:33:58.073Z,27.73
2022-10-16T12:36:33.474Z,28.33
2022-10-16T12:39:00.571Z,28.36
2022-10-16T12:41:34.066Z,27.11
2022-10-16T12:44:06.596Z,28.18
2022-10-16T12:46:38.414Z,27.64
2022-10-16T12:49:13.282Z,26.71
2022-10-16T12:51:41.215Z,26.50
2022-10-16T12:54:10.112Z,25.79
2022-10-16T12:57:00.395Z,26.13
2022-10-16T13:00:03.842Z,25.38
2022-10-16T13:03:01.508Z,24.37
2022-10-16T13:05:46.067Z,24.27
2022-10-16T13:08:34.179Z,25.00
2022-10-16T13:11:19.894Z,25.14
2022-10-16T13:14:20.693Z,24.81
2022-10-16T13:17:10.686Z,25.34
2022-10-16T13:19:55.416Z,25.29
2022-10-16T13:22:56.594Z,25.43
2022-10-16T13:25:33.460Z,25.19
2022-10-16T13:28:06.976Z,25.77
2022-10-16T13:30:41.484Z,25.66
2022-10-16T13:33:19.095Z,25.20
2022-10-16T13:35:58.634Z,25.19
2022-10-16T13:38:31.676Z,25.26
2022-10-16T13:41:00.062Z,24.34
2022-10-16T13:43:39.984Z,25.21
2022-10-16T13:46:15.759Z,25.40
2022-10-16T13:48:43.050Z,23.85
2022-10-16T13:51:18.491Z,24.65
2022-10-16T13:53:50.001Z,24.88
2022-10-16T13:56:22.733Z,24.54
2022-10-16T13:59:03.609Z,23.67
2022-10-16T14:01:33.019Z,24.17
2022-10-16T14:04:07.236Z,24.54
2022-10-16T14:06:34.391Z,23.69
2022-10-16T14:09:08.587Z,23.23
2022-10-16T14:11:45.563Z,23.10
2022-10-16T14:14:16.040Z,23.43
2022-10-16T14:16:44.107Z,23.41
2022-10-16T14:19:25.896Z,23.37
2022-10-16T14:21:55.372Z,22.74
2022-10-16T14:24:35.424Z,23.17
2022-10-16T14:27:02.888Z,24.32
2022-10-16T14:29:32.998Z,24.23
2022-10-16T14:32:05.499Z,24.10
2022-10-16T14:34:41.144Z,23.94
2022-10-16T14:37:17.077Z,23.75
2022-10-16T14:39:51.199Z,23.69
2022-10-16T14:42:20.374Z,24.43
2022-10-16T14:44:51.847Z,26.21
2022-10-16T14:47:25.278Z,28.03
2022-10-16T14:49:54.074Z,28.61
2022-10-16T14:52:22.855Z,28.96
2022-10-16T14:54:55.634Z,29.60
2022-10-16T14:57:30.350Z,29.54
2022-10-16T14:59:59.760Z,30.30
2022-10-16T15:02:31.486Z,30.42
2022-10-16T15:05:04.815Z,30.62
2022-10-16T15:07:31.522Z,31.00
2022-10-16T15:09:59.491Z,31.75
2022-10-16T15:12:26.231Z,31.86
2022-10-16T15:14:52.936Z,32.54
2022-10-16T15:17:22.270Z,32.46
2022-10-16T15:19:49.121Z,32.46
2022-10-16T15:22:15.914Z,32.50
2022-10-16T15:24:45.015Z,32.21
2022-10-16T15:27:11.811Z,31.95
2022-10-16T15:29:38.558Z,32.57
2022-10-16T15:32:12.769Z,32.60
2022-10-16T15:34:42.114Z,32.41
2022-10-16T15:37:14.749Z,32.86
2022-10-16T15:39:41.625Z,32.95
2022-10-16T15:42:10.784Z,33.71
2022-10-16T15:44:37.555Z,34.06
2022-10-16T15:47:05.448Z,34.45
2022-10-16T15:49:32.145Z,35.16
2022-10-16T15:51:58.885Z,35.27
2022-10-16T15:54:30.444Z,35.65
2022-10-16T15:56:57.270Z,36.26
2022-10-16T15:59:23.945Z,36.23
2022-10-16T16:01:50.721Z,36.50
2022-10-16T16:04:39.156Z,36.76
2022-10-16T16:07:08.346Z,36.80
2022-10-16T16:09:39.988Z,37.05
2022-10-16T16:12:06.721Z,37.39
2022-10-16T16:14:33.447Z,37.76
2022-10-16T16:17:00.336Z,38.08
2022-10-16T16:19:27.028Z,38.02
2022-10-16T16:21:56.092Z,38.53
2022-10-16T16:24:22.780Z,38.77
2022-10-16T16:26:51.747Z,38.92
2022-10-16T16:29:18.496Z,39.74
2022-10-16T16:31:45.417Z,39.09
2022-10-16T16:34:17.224Z,39.84
2022-10-16T16:36:51.307Z,40.13
2022-10-16T16:39:18.960Z,40.21
2022-10-16T16:41:48.067Z,39.87
2022-10-16T16:44:17.517Z,41.49
2022-10-16T16:46:44.932Z,40.43
2022-10-16T16:49:15.298Z,40.76
2022-10-16T16:51:45.581Z,40.81
2022-10-16T16:54:14.999Z,41.04
2022-10-16T16:56:44.042Z,42.08
2022-10-16T16:59:18.799Z,41.37
2022-10-16T17:01:45.569Z,41.51
2022-10-16T17:04:14.326Z,41.74
2022-10-16T17:06:46.228Z,41.81
2022-10-16T17:09:17.786Z,42.39
2022-10-16T17:11:45.590Z,42.77
2022-10-16T17:14:15.225Z,43.08
2022-10-16T17:16:44.883Z,43.70
2022-10-16T17:19:19.046Z,44.02
2022-10-16T17:21:46.220Z,44.76
2022-10-16T17:24:18.542Z,45.10
2022-10-16T17:26:49.110Z,45.33
2022-10-16T17:29:18.221Z,45.11
2022-10-16T17:31:45.567Z,45.62
2022-10-16T17:34:12.859Z,45.91
2022-10-16T17:36:46.837Z,46.59
2022-10-16T17:39:15.256Z,47.49
2022-10-16T17:41:45.152Z,47.36
2022-10-16T17:44:19.588Z,47.53
2022-10-16T17:46:51.611Z,47.69
2022-10-16T17:49:21.089Z,47.21
2022-10-16T17:51:53.673Z,48.02
2022-10-16T17:54:23.008Z,48.20
2022-10-16T17:56:49.841Z,48.63
2022-10-16T17:59:16.523Z,49.45
2022-10-16T18:01:47.674Z,49.33
2022-10-16T18:04:18.387Z,50.08
2022-10-16T18:06:47.925Z,50.10
2022-10-16T18:09:18.537Z,50.37
2022-10-16T18:11:52.493Z,51.22
2022-10-16T18:14:24.071Z,51.46
2022-10-16T18:16:52.873Z,51.65
2022-10-16T18:19:22.858Z,51.69
2022-10-16T18:21:52.027Z,52.04
2022-10-16T18:24:21.792Z,52.33
2022-10-16T18:26:49.700Z,52.20
2022-10-16T18:29:18.794Z,52.59
2022-10-16T18:31:47.974Z,52.71
2022-10-16T18:34:14.861Z,54.13
2022-10-16T18:36:43.134Z,52.61
2022-10-16T18:39:13.080Z,53.31
2022-10-16T18:41:45.732Z,52.84
2022-10-16T18:44:13.287Z,53.31
2022-10-16T18:46:42.751Z,53.24
2022-10-16T18:49:11.849Z,53.19
2022-10-16T18:51:40.819Z,53.88
2022-10-16T18:54:09.531Z,53.56
2022-10-16T18:56:39.248Z,54.44
2022-10-16T18:59:10.246Z,54.07
2022-10-16T19:01:38.863Z,54.15
2022-10-16T19:04:11.484Z,54.33
2022-10-16T19:06:50.945Z,54.72
2022-10-16T19:09:18.856Z,54.65
2022-10-16T19:11:45.935Z,54.44
2022-10-16T19:14:17.039Z,54.81
2022-10-16T19:16:46.537Z,54.86
2022-10-16T19:19:18.337Z,54.90
2022-10-16T19:21:56.100Z,55.06
2022-10-16T19:24:22.785Z,55.10
2022-10-16T19:26:49.871Z,55.38
2022-10-16T19:29:19.419Z,55.34
2022-10-16T19:31:46.191Z,55.41
2022-10-16T19:34:12.883Z,55.43
2022-10-16T19:36:40.970Z,55.72
2022-10-16T19:39:12.388Z,56.46
2022-10-16T19:41:42.233Z,56.64
2022-10-16T19:44:12.485Z,57.55
2022-10-16T19:46:41.020Z,57.61
2022-10-16T19:49:13.413Z,58.10
2022-10-16T19:51:40.426Z,58.22
2022-10-16T19:54:12.874Z,58.37
2022-10-16T19:56:42.834Z,58.62
2022-10-16T19:59:13.330Z,58.39
2022-10-16T20:01:45.415Z,58.66
2022-10-16T20:04:13.051Z,58.63
2022-10-16T20:06:40.021Z,58.49
2022-10-16T20:09:06.832Z,58.84
2022-10-16T20:11:52.416Z,58.53
2022-10-16T20:14:33.038Z,58.69
2022-10-16T20:17:00.026Z,59.22
2022-10-16T20:19:29.258Z,59.06
2022-10-16T20:21:55.952Z,59.80
2022-10-16T20:24:27.866Z,58.73
2022-10-16T20:27:01.321Z,58.71
2022-10-16T20:29:28.182Z,58.64
2022-10-16T20:31:57.129Z,58.71
2022-10-16T20:34:26.035Z,58.67
2022-10-16T20:36:53.043Z,59.00
2022-10-16T20:39:20.540Z,58.99
2022-10-16T20:41:50.307Z,58.86
2022-10-16T20:44:17.101Z,58.97
2022-10-16T20:46:46.489Z,59.32
2022-10-16T20:49:28.520Z,58.96
2022-10-16T20:52:02.333Z,59.10
2022-10-16T20:54:29.080Z,59.16
2022-10-16T20:56:58.243Z,59.43
2022-10-16T20:59:29.541Z,59.65
2022-10-16T21:01:58.641Z,59.79
2022-10-16T21:04:25.443Z,60.06
2022-10-16T21:06:52.136Z,59.79
2022-10-16T21:09:18.809Z,59.75
2022-10-16T21:11:48.571Z,59.82
2022-10-16T21:14:15.460Z,59.85
2022-10-16T21:16:42.132Z,59.46
2022-10-16T21:19:08.844Z,59.57
2022-10-16T21:21:40.032Z,59.40
2022-10-16T21:24:13.706Z,59.28
2022-10-16T21:26:43.849Z,59.45
2022-10-16T21:29:13.932Z,59.60
2022-10-16T21:31:43.844Z,60.00
2022-10-16T21:34:10.581Z,59.43
2022-10-16T21:36:39.880Z,59.92
2022-10-16T21:39:13.014Z,60.23
2022-10-16T21:41:40.850Z,60.01
2022-10-16T21:44:10.516Z,60.07
2022-10-16T21:46:41.004Z,60.06
2022-10-16T21:49:13.618Z,59.96
2022-10-16T21:51:43.438Z,59.90
2022-10-16T21:54:18.452Z,59.66
2022-10-16T21:56:45.868Z,59.82
2022-10-16T21:59:15.662Z,60.07
2022-10-16T22:01:43.168Z,60.08
2022-10-16T22:04:13.942Z,60.25
2022-10-16T22:06:43.354Z,60.15
2022-10-16T22:09:14.324Z,60.19
2022-10-16T22:11:42.998Z,60.60
2022-10-16T22:14:14.990Z,60.60
2022-10-16T22:16:42.246Z,60.86
2022-10-16T22:19:09.283Z,60.98
2022-10-16T22:21:38.027Z,60.96
2022-10-16T22:24:08.413Z,60.97
2022-10-16T22:26:38.827Z,61.04
2022-10-16T22:29:06.779Z,61.11
2022-10-16T22:31:34.027Z,61.09
2022-10-16T22:34:03.057Z,61.17
2022-10-16T22:36:30.018Z,61.19
2022-10-16T22:38:57.087Z,61.28
2022-10-16T22:41:26.203Z,61.37
2022-10-16T22:43:53.456Z,61.84
2022-10-16T22:46:23.131Z,62.36
2022-10-16T22:48:52.595Z,62.45
2022-10-16T22:51:22.069Z,62.43
2022-10-16T22:53:51.247Z,62.54
2022-10-16T22:56:22.341Z,62.46
2022-10-16T22:58:50.173Z,62.58
2022-10-16T23:01:25.989Z,62.54
2022-10-16T23:03:57.432Z,62.54
2022-10-16T23:06:24.747Z,62.69
2022-10-16T23:08:52.822Z,62.65
2022-10-16T23:11:19.518Z,62.90
2022-10-16T23:13:48.451Z,62.79
2022-10-16T23:16:16.946Z,62.89
2022-10-16T23:18:44.570Z,63.04
2022-10-16T23:21:16.307Z,62.97
2022-10-16T23:23:43.494Z,62.92
2022-10-16T23:26:15.912Z,63.12
2022-10-16T23:28:43.022Z,63.07
2022-10-16T23:31:10.832Z,62.85
2022-10-16T23:33:38.096Z,62.91
2022-10-16T23:36:06.904Z,62.84
2022-10-16T23:38:33.552Z,62.84
2022-10-16T23:41:00.547Z,62.70
2022-10-16T23:43:30.464Z,63.13
2022-10-16T23:45:57.527Z,63.06
2022-10-16T23:48:24.687Z,62.94
2022-10-16T23:50:51.448Z,63.10
2022-10-16T23:53:20.837Z,63.28
2022-10-16T23:55:49.774Z,63.40
2022-10-16T23:58:19.159Z,63.30
